Bluefield, WV

07:13 EST le 26 février 2017 (GMT -0500)
Parkview Heights | | Change Station

Alt. 2402 ft 37.24 °N, 81.28 °W | Updated 0 second ago

Overcast
Couvert
25.5 ° F
Paraît 26 ° F
N
3.0
Vent Variable Vent de Ouest
Gusts 8.0 mph

Aujourd'hui
Haut(e) -- | Bas -- ° F
--% Risque de précip.
Hier
Haut(e) -- | Bas -- ° F
Precip. -- pouce
Pression 30.11 pouce
Visibilité 10.0 Miles terrestres
Nuages Couvert 2400 ft
Refroidissement éolien 26 ° F
Point de rosée 18 ° F
Humidité 73%
Précipitations 0.00 pouce
Profondeur de la couche neigeuse Non disponible.
6:59 AM 6:16 PM
Lune descendante, 0% visible
METAR KBLF 261152Z AUTO 28010G17KT 10SM OVC024 M06/M10 A3005 RMK AO2 SLP196 70011 T10561100 11039 21056 53022
Pression 30.11 pouce
Visibilité 10.0 Miles terrestres
Nuages Couvert 2400 ft
Refroidissement éolien 26 ° F
Point de rosée 18 ° F
Humidité 73%
Précipitations 0.00 pouce
Profondeur de la couche neigeuse Non disponible.
6:59 AM 6:16 PM
Lune descendante, 0% visible
METAR KBLF 261152Z AUTO 28010G17KT 10SM OVC024 M06/M10 A3005 RMK AO2 SLP196 70011 T10561100 11039 21056 53022

Get Your Daily Forecast Email!

Thanks for signing up!

Be on the lookout for a verification email in your inbox.

You'll start receiving the daily forecast at 8 AM.

×

10-Day Weather Forecast

Almanac

Astronomie

Feb. 26, 2017 Lever Coucher
Temps réel
Crépuscule civil
Crépuscule nautique
Crépuscule astronomique
Lune
Durée de lumière visible
Longueur du jour
Tomorrow will be .
, % of the Moon is Illuminated

Extrêmes aujourd'hui

State Highs State Lows

Community

WunderPhotos

Upload Photos

1,962,540 Photos téléchargées !

WunderBlog® & News

Nearby

Qualité de l'air

  Qualité de l'air Indice de la qualité de l'air Polluant
Not available.

Épaisseur de neige

Station Depth Altitude

Activité sismique

Ville Distance Mag. Time & Date
Minimum magnitude displayed is 2.5.

Températures des eaux côtières

Lieu Température

Stations

Stations météo à proximité

Emplacement de la station Température Refroidissement éolien Point de rosée Humidité Vent Precip. Alt. Mise à jour Type
                   

Watches & Warnings

There are currently no watches in effect.